sensor_id;sensor_type;location;lat;lon;timestamp;temperature;humidity
69628;DHT22;56850;51.984;5.088;2022-09-23T00:01:13;16.40;55.60
69628;DHT22;56850;51.984;5.088;2022-09-23T00:03:42;16.40;55.70
69628;DHT22;56850;51.984;5.088;2022-09-23T00:06:13;16.40;55.70
69628;DHT22;56850;51.984;5.088;2022-09-23T00:08:40;16.40;55.80
69628;DHT22;56850;51.984;5.088;2022-09-23T00:11:13;16.40;55.80
69628;DHT22;56850;51.984;5.088;2022-09-23T00:13:42;16.30;55.80
69628;DHT22;56850;51.984;5.088;2022-09-23T00:16:13;16.30;55.80
69628;DHT22;56850;51.984;5.088;2022-09-23T00:18:41;16.30;55.90
69628;DHT22;56850;51.984;5.088;2022-09-23T00:21:10;16.20;55.90
69628;DHT22;56850;51.984;5.088;2022-09-23T00:23:39;16.20;56.00
69628;DHT22;56850;51.984;5.088;2022-09-23T00:26:08;16.20;56.10
69628;DHT22;56850;51.984;5.088;2022-09-23T00:28:36;16.20;56.10
69628;DHT22;56850;51.984;5.088;2022-09-23T00:31:06;16.20;56.20
69628;DHT22;56850;51.984;5.088;2022-09-23T00:33:33;16.20;56.20
69628;DHT22;56850;51.984;5.088;2022-09-23T00:36:03;16.20;56.20
69628;DHT22;56850;51.984;5.088;2022-09-23T00:38:30;16.20;56.20
69628;DHT22;56850;51.984;5.088;2022-09-23T00:40:57;16.20;56.10
69628;DHT22;56850;51.984;5.088;2022-09-23T00:43:53;16.20;56.20
69628;DHT22;56850;51.984;5.088;2022-09-23T00:49:04;16.10;56.20
69628;DHT22;56850;51.984;5.088;2022-09-23T00:51:35;16.10;56.30
69628;DHT22;56850;51.984;5.088;2022-09-23T00:54:04;16.10;56.30
69628;DHT22;56850;51.984;5.088;2022-09-23T00:56:32;16.10;56.30
69628;DHT22;56850;51.984;5.088;2022-09-23T00:59:00;16.00;56.30
69628;DHT22;56850;51.984;5.088;2022-09-23T01:01:27;16.00;56.30
69628;DHT22;56850;51.984;5.088;2022-09-23T01:03:55;16.00;56.40
69628;DHT22;56850;51.984;5.088;2022-09-23T01:06:23;16.00;56.50
69628;DHT22;56850;51.984;5.088;2022-09-23T01:08:51;15.90;56.40
69628;DHT22;56850;51.984;5.088;2022-09-23T01:11:35;15.90;56.50
69628;DHT22;56850;51.984;5.088;2022-09-23T01:14:28;15.90;56.60
69628;DHT22;56850;51.984;5.088;2022-09-23T01:17:10;15.80;56.70
69628;DHT22;56850;51.984;5.088;2022-09-23T01:30:48;15.70;56.90
69628;DHT22;56850;51.984;5.088;2022-09-23T01:33:57;15.70;56.90
69628;DHT22;56850;51.984;5.088;2022-09-23T01:36:38;15.60;57.10
69628;DHT22;56850;51.984;5.088;2022-09-23T01:39:21;15.60;57.00
69628;DHT22;56850;51.984;5.088;2022-09-23T01:44:39;15.60;57.10
69628;DHT22;56850;51.984;5.088;2022-09-23T01:47:16;15.50;57.20
69628;DHT22;56850;51.984;5.088;2022-09-23T01:50:02;15.50;57.20
69628;DHT22;56850;51.984;5.088;2022-09-23T01:52:52;15.50;57.30
69628;DHT22;56850;51.984;5.088;2022-09-23T01:55:29;15.50;57.30
69628;DHT22;56850;51.984;5.088;2022-09-23T01:58:24;15.50;57.30
69628;DHT22;56850;51.984;5.088;2022-09-23T02:01:06;15.40;57.30
69628;DHT22;56850;51.984;5.088;2022-09-23T02:03:42;15.50;57.40
69628;DHT22;56850;51.984;5.088;2022-09-23T02:06:21;15.40;57.40
69628;DHT22;56850;51.984;5.088;2022-09-23T02:09:01;15.40;57.30
69628;DHT22;56850;51.984;5.088;2022-09-23T02:11:33;15.30;57.40
69628;DHT22;56850;51.984;5.088;2022-09-23T02:14:16;15.30;57.50
69628;DHT22;56850;51.984;5.088;2022-09-23T02:16:53;15.30;57.50
69628;DHT22;56850;51.984;5.088;2022-09-23T02:19:29;15.20;57.50
69628;DHT22;56850;51.984;5.088;2022-09-23T02:22:28;15.20;57.50
69628;DHT22;56850;51.984;5.088;2022-09-23T02:25:00;15.20;57.60
69628;DHT22;56850;51.984;5.088;2022-09-23T02:27:34;15.20;57.50
69628;DHT22;56850;51.984;5.088;2022-09-23T02:30:14;15.10;57.60
69628;DHT22;56850;51.984;5.088;2022-09-23T02:32:56;15.10;57.70
69628;DHT22;56850;51.984;5.088;2022-09-23T02:35:32;15.10;57.70
69628;DHT22;56850;51.984;5.088;2022-09-23T02:38:30;15.10;57.60
69628;DHT22;56850;51.984;5.088;2022-09-23T02:44:12;15.10;57.60
69628;DHT22;56850;51.984;5.088;2022-09-23T02:46:41;15.10;57.60
69628;DHT22;56850;51.984;5.088;2022-09-23T02:49:37;15.10;57.60
69628;DHT22;56850;51.984;5.088;2022-09-23T02:52:04;15.00;57.70
69628;DHT22;56850;51.984;5.088;2022-09-23T02:54:33;15.00;57.60
69628;DHT22;56850;51.984;5.088;2022-09-23T02:57:04;15.00;57.80
69628;DHT22;56850;51.984;5.088;2022-09-23T02:59:33;15.00;57.80
69628;DHT22;56850;51.984;5.088;2022-09-23T03:02:26;15.00;57.80
69628;DHT22;56850;51.984;5.088;2022-09-23T03:05:14;15.00;57.90
69628;DHT22;56850;51.984;5.088;2022-09-23T03:11:04;14.90;58.00
69628;DHT22;56850;51.984;5.088;2022-09-23T03:16:14;14.90;58.10
69628;DHT22;56850;51.984;5.088;2022-09-23T03:18:51;14.80;58.20
69628;DHT22;56850;51.984;5.088;2022-09-23T03:23:54;14.80;58.30
69628;DHT22;56850;51.984;5.088;2022-09-23T03:26:36;14.80;58.40
69628;DHT22;56850;51.984;5.088;2022-09-23T03:29:06;14.80;58.50
69628;DHT22;56850;51.984;5.088;2022-09-23T03:31:38;14.80;58.50
69628;DHT22;56850;51.984;5.088;2022-09-23T03:34:13;14.80;58.60
69628;DHT22;56850;51.984;5.088;2022-09-23T03:36:56;14.80;58.60
69628;DHT22;56850;51.984;5.088;2022-09-23T03:39:29;14.80;58.60
69628;DHT22;56850;51.984;5.088;2022-09-23T03:42:00;14.80;58.50
69628;DHT22;56850;51.984;5.088;2022-09-23T03:44:30;14.80;58.60
69628;DHT22;56850;51.984;5.088;2022-09-23T03:47:03;14.80;58.60
69628;DHT22;56850;51.984;5.088;2022-09-23T03:49:35;14.70;58.80
69628;DHT22;56850;51.984;5.088;2022-09-23T03:52:02;14.70;58.80
69628;DHT22;56850;51.984;5.088;2022-09-23T03:54:29;14.70;58.80
69628;DHT22;56850;51.984;5.088;2022-09-23T03:56:57;14.70;58.90
69628;DHT22;56850;51.984;5.088;2022-09-23T03:59:25;14.70;58.90
69628;DHT22;56850;51.984;5.088;2022-09-23T04:01:53;14.70;58.80
69628;DHT22;56850;51.984;5.088;2022-09-23T04:04:21;14.60;58.90
69628;DHT22;56850;51.984;5.088;2022-09-23T04:06:48;14.60;59.00
69628;DHT22;56850;51.984;5.088;2022-09-23T04:09:15;14.60;59.10
69628;DHT22;56850;51.984;5.088;2022-09-23T04:11:41;14.60;59.10
69628;DHT22;56850;51.984;5.088;2022-09-23T04:14:08;14.60;59.00
69628;DHT22;56850;51.984;5.088;2022-09-23T04:16:36;14.60;59.00
69628;DHT22;56850;51.984;5.088;2022-09-23T04:19:02;14.50;59.10
69628;DHT22;56850;51.984;5.088;2022-09-23T04:21:31;14.50;59.10
69628;DHT22;56850;51.984;5.088;2022-09-23T04:23:58;14.50;59.20
69628;DHT22;56850;51.984;5.088;2022-09-23T04:26:25;14.50;59.20
69628;DHT22;56850;51.984;5.088;2022-09-23T04:28:53;14.50;59.20
69628;DHT22;56850;51.984;5.088;2022-09-23T04:31:20;14.50;59.20
69628;DHT22;56850;51.984;5.088;2022-09-23T04:33:51;14.50;59.30
69628;DHT22;56850;51.984;5.088;2022-09-23T04:36:18;14.50;59.30
69628;DHT22;56850;51.984;5.088;2022-09-23T04:38:46;14.50;59.30
69628;DHT22;56850;51.984;5.088;2022-09-23T04:41:15;14.50;59.30
69628;DHT22;56850;51.984;5.088;2022-09-23T04:43:42;14.50;59.40
69628;DHT22;56850;51.984;5.088;2022-09-23T04:46:11;14.50;59.40
69628;DHT22;56850;51.984;5.088;2022-09-23T04:48:39;14.50;59.40
69628;DHT22;56850;51.984;5.088;2022-09-23T04:51:13;14.50;59.40
69628;DHT22;56850;51.984;5.088;2022-09-23T04:53:41;14.50;59.40
69628;DHT22;56850;51.984;5.088;2022-09-23T04:56:10;14.50;59.40
69628;DHT22;56850;51.984;5.088;2022-09-23T04:58:38;14.50;59.40
69628;DHT22;56850;51.984;5.088;2022-09-23T05:01:21;14.50;59.40
69628;DHT22;56850;51.984;5.088;2022-09-23T05:03:55;14.50;59.50
69628;DHT22;56850;51.984;5.088;2022-09-23T05:06:23;14.50;59.50
69628;DHT22;56850;51.984;5.088;2022-09-23T05:08:52;14.50;59.50
69628;DHT22;56850;51.984;5.088;2022-09-23T05:11:20;14.50;59.40
69628;DHT22;56850;51.984;5.088;2022-09-23T05:13:49;14.40;59.40
69628;DHT22;56850;51.984;5.088;2022-09-23T05:16:17;14.40;59.50
69628;DHT22;56850;51.984;5.088;2022-09-23T05:18:45;14.40;59.60
69628;DHT22;56850;51.984;5.088;2022-09-23T05:21:15;14.40;59.60
69628;DHT22;56850;51.984;5.088;2022-09-23T05:23:45;14.50;59.60
69628;DHT22;56850;51.984;5.088;2022-09-23T05:26:13;14.50;59.50
69628;DHT22;56850;51.984;5.088;2022-09-23T05:28:40;14.50;59.60
69628;DHT22;56850;51.984;5.088;2022-09-23T05:31:10;14.50;59.50
69628;DHT22;56850;51.984;5.088;2022-09-23T05:33:51;14.50;59.50
69628;DHT22;56850;51.984;5.088;2022-09-23T05:36:18;14.50;59.50
69628;DHT22;56850;51.984;5.088;2022-09-23T05:38:48;14.50;59.50
69628;DHT22;56850;51.984;5.088;2022-09-23T05:41:17;14.50;59.60
69628;DHT22;56850;51.984;5.088;2022-09-23T05:43:45;14.50;59.50
69628;DHT22;56850;51.984;5.088;2022-09-23T05:46:15;14.50;59.50
69628;DHT22;56850;51.984;5.088;2022-09-23T05:48:43;14.50;59.50
69628;DHT22;56850;51.984;5.088;2022-09-23T05:51:19;14.50;59.40
69628;DHT22;56850;51.984;5.088;2022-09-23T05:53:47;14.50;59.60
69628;DHT22;56850;51.984;5.088;2022-09-23T05:56:18;14.50;59.50
69628;DHT22;56850;51.984;5.088;2022-09-23T05:58:47;14.60;59.50
69628;DHT22;56850;51.984;5.088;2022-09-23T06:01:24;14.60;59.50
69628;DHT22;56850;51.984;5.088;2022-09-23T06:03:55;14.60;59.50
69628;DHT22;56850;51.984;5.088;2022-09-23T06:06:27;14.60;59.60
69628;DHT22;56850;51.984;5.088;2022-09-23T06:08:54;14.60;59.50
69628;DHT22;56850;51.984;5.088;2022-09-23T06:11:21;14.60;59.50
69628;DHT22;56850;51.984;5.088;2022-09-23T06:13:54;14.60;59.50
69628;DHT22;56850;51.984;5.088;2022-09-23T06:16:21;14.60;59.50
69628;DHT22;56850;51.984;5.088;2022-09-23T06:18:48;14.60;59.50
69628;DHT22;56850;51.984;5.088;2022-09-23T06:21:16;14.60;59.50
69628;DHT22;56850;51.984;5.088;2022-09-23T06:23:44;14.60;59.50
69628;DHT22;56850;51.984;5.088;2022-09-23T06:26:13;14.60;59.50
69628;DHT22;56850;51.984;5.088;2022-09-23T06:28:42;14.60;59.50
69628;DHT22;56850;51.984;5.088;2022-09-23T06:31:11;14.60;59.60
69628;DHT22;56850;51.984;5.088;2022-09-23T06:33:41;14.60;59.60
69628;DHT22;56850;51.984;5.088;2022-09-23T06:36:09;14.70;59.60
69628;DHT22;56850;51.984;5.088;2022-09-23T06:38:43;14.70;59.70
69628;DHT22;56850;51.984;5.088;2022-09-23T06:41:11;14.70;59.80
69628;DHT22;56850;51.984;5.088;2022-09-23T06:43:38;14.70;59.70
69628;DHT22;56850;51.984;5.088;2022-09-23T06:46:05;14.80;59.60
69628;DHT22;56850;51.984;5.088;2022-09-23T06:48:33;14.80;59.60
69628;DHT22;56850;51.984;5.088;2022-09-23T06:51:03;14.80;59.50
69628;DHT22;56850;51.984;5.088;2022-09-23T06:53:31;14.90;59.50
69628;DHT22;56850;51.984;5.088;2022-09-23T06:56:06;14.90;59.60
69628;DHT22;56850;51.984;5.088;2022-09-23T06:58:34;15.00;59.50
69628;DHT22;56850;51.984;5.088;2022-09-23T07:01:04;15.00;59.40
69628;DHT22;56850;51.984;5.088;2022-09-23T07:03:31;15.10;59.30
69628;DHT22;56850;51.984;5.088;2022-09-23T07:05:59;15.10;59.30
69628;DHT22;56850;51.984;5.088;2022-09-23T07:08:28;15.10;59.30
69628;DHT22;56850;51.984;5.088;2022-09-23T07:10:57;15.20;59.30
69628;DHT22;56850;51.984;5.088;2022-09-23T07:13:25;15.20;59.30
69628;DHT22;56850;51.984;5.088;2022-09-23T07:15:55;15.30;59.30
69628;DHT22;56850;51.984;5.088;2022-09-23T07:18:25;15.30;59.20
69628;DHT22;56850;51.984;5.088;2022-09-23T07:20:53;15.40;59.10
69628;DHT22;56850;51.984;5.088;2022-09-23T07:23:20;15.40;59.20
69628;DHT22;56850;51.984;5.088;2022-09-23T07:25:47;15.50;59.20
69628;DHT22;56850;51.984;5.088;2022-09-23T07:28:16;15.50;59.10
69628;DHT22;56850;51.984;5.088;2022-09-23T07:30:44;15.50;59.00
69628;DHT22;56850;51.984;5.088;2022-09-23T07:33:24;15.50;59.10
69628;DHT22;56850;51.984;5.088;2022-09-23T07:35:58;15.50;59.20
69628;DHT22;56850;51.984;5.088;2022-09-23T07:38:25;15.60;59.30
69628;DHT22;56850;51.984;5.088;2022-09-23T07:41:16;15.60;59.20
69628;DHT22;56850;51.984;5.088;2022-09-23T07:43:44;15.60;59.30
69628;DHT22;56850;51.984;5.088;2022-09-23T07:46:14;15.70;59.20
69628;DHT22;56850;51.984;5.088;2022-09-23T07:48:43;15.80;59.30
69628;DHT22;56850;51.984;5.088;2022-09-23T07:51:26;15.90;59.20
69628;DHT22;56850;51.984;5.088;2022-09-23T07:54:00;15.90;59.20
69628;DHT22;56850;51.984;5.088;2022-09-23T07:56:28;16.00;59.10
69628;DHT22;56850;51.984;5.088;2022-09-23T07:58:55;16.20;59.10
69628;DHT22;56850;51.984;5.088;2022-09-23T08:01:32;16.30;58.70
69628;DHT22;56850;51.984;5.088;2022-09-23T08:04:02;16.30;58.70
69628;DHT22;56850;51.984;5.088;2022-09-23T08:06:29;16.40;58.60
69628;DHT22;56850;51.984;5.088;2022-09-23T08:08:58;16.50;58.30
69628;DHT22;56850;51.984;5.088;2022-09-23T08:11:25;16.50;58.20
69628;DHT22;56850;51.984;5.088;2022-09-23T08:13:53;16.60;58.20
69628;DHT22;56850;51.984;5.088;2022-09-23T08:16:20;16.70;58.10
69628;DHT22;56850;51.984;5.088;2022-09-23T08:18:47;16.80;57.90
69628;DHT22;56850;51.984;5.088;2022-09-23T08:21:19;16.90;57.80
69628;DHT22;56850;51.984;5.088;2022-09-23T08:23:47;17.00;57.70
69628;DHT22;56850;51.984;5.088;2022-09-23T08:26:14;17.00;57.60
69628;DHT22;56850;51.984;5.088;2022-09-23T08:28:48;17.10;57.60
69628;DHT22;56850;51.984;5.088;2022-09-23T08:31:15;17.30;57.40
69628;DHT22;56850;51.984;5.088;2022-09-23T08:33:42;17.40;57.30
69628;DHT22;56850;51.984;5.088;2022-09-23T08:36:09;17.50;57.20
69628;DHT22;56850;51.984;5.088;2022-09-23T08:38:36;17.60;56.90
69628;DHT22;56850;51.984;5.088;2022-09-23T08:41:20;17.70;56.80
69628;DHT22;56850;51.984;5.088;2022-09-23T08:44:54;17.80;56.40
69628;DHT22;56850;51.984;5.088;2022-09-23T08:52:59;17.90;55.80
69628;DHT22;56850;51.984;5.088;2022-09-23T08:55:38;18.00;55.60
69628;DHT22;56850;51.984;5.088;2022-09-23T09:01:20;18.20;55.20
69628;DHT22;56850;51.984;5.088;2022-09-23T09:03:52;18.20;55.00
69628;DHT22;56850;51.984;5.088;2022-09-23T09:06:26;18.30;54.80
69628;DHT22;56850;51.984;5.088;2022-09-23T09:09:00;18.30;54.50
69628;DHT22;56850;51.984;5.088;2022-09-23T09:11:33;18.20;54.60
69628;DHT22;56850;51.984;5.088;2022-09-23T09:14:18;18.30;54.60
69628;DHT22;56850;51.984;5.088;2022-09-23T09:17:03;18.30;54.50
69628;DHT22;56850;51.984;5.088;2022-09-23T09:21:58;18.40;54.50
69628;DHT22;56850;51.984;5.088;2022-09-23T09:24:32;18.50;54.30
69628;DHT22;56850;51.984;5.088;2022-09-23T09:27:04;18.50;54.10
69628;DHT22;56850;51.984;5.088;2022-09-23T09:29:41;18.50;54.30
69628;DHT22;56850;51.984;5.088;2022-09-23T09:32:37;18.60;54.30
69628;DHT22;56850;51.984;5.088;2022-09-23T09:35:27;18.60;54.10
69628;DHT22;56850;51.984;5.088;2022-09-23T09:37:54;18.70;53.90
69628;DHT22;56850;51.984;5.088;2022-09-23T09:40:21;18.70;54.00
69628;DHT22;56850;51.984;5.088;2022-09-23T09:42:49;18.70;53.80
69628;DHT22;56850;51.984;5.088;2022-09-23T09:48:14;18.80;53.70
69628;DHT22;56850;51.984;5.088;2022-09-23T09:50:48;18.90;53.50
69628;DHT22;56850;51.984;5.088;2022-09-23T09:53:30;19.00;53.60
69628;DHT22;56850;51.984;5.088;2022-09-23T09:56:08;19.10;53.40
69628;DHT22;56850;51.984;5.088;2022-09-23T09:58:45;19.20;53.00
69628;DHT22;56850;51.984;5.088;2022-09-23T10:03:53;19.30;52.80
69628;DHT22;56850;51.984;5.088;2022-09-23T10:06:27;19.40;52.60
69628;DHT22;56850;51.984;5.088;2022-09-23T10:09:03;19.40;52.40
69628;DHT22;56850;51.984;5.088;2022-09-23T10:11:31;19.50;51.90
69628;DHT22;56850;51.984;5.088;2022-09-23T10:16:29;19.50;51.40
69628;DHT22;56850;51.984;5.088;2022-09-23T10:19:02;19.60;51.30
69628;DHT22;56850;51.984;5.088;2022-09-23T10:21:35;19.60;51.00
69628;DHT22;56850;51.984;5.088;2022-09-23T10:24:05;19.60;50.90
69628;DHT22;56850;51.984;5.088;2022-09-23T10:26:40;19.60;50.70
69628;DHT22;56850;51.984;5.088;2022-09-23T10:29:32;19.60;50.60
69628;DHT22;56850;51.984;5.088;2022-09-23T10:34:42;19.50;50.90
69628;DHT22;56850;51.984;5.088;2022-09-23T10:37:31;19.60;51.10
69628;DHT22;56850;51.984;5.088;2022-09-23T10:39:59;19.70;51.20
69628;DHT22;56850;51.984;5.088;2022-09-23T10:45:50;19.90;51.00
69628;DHT22;56850;51.984;5.088;2022-09-23T10:51:52;20.00;51.00
69628;DHT22;56850;51.984;5.088;2022-09-23T11:20:17;20.20;49.60
69628;DHT22;56850;51.984;5.088;2022-09-23T11:25:42;20.40;49.60
69628;DHT22;56850;51.984;5.088;2022-09-23T11:36:35;20.80;48.80
69628;DHT22;56850;51.984;5.088;2022-09-23T11:39:10;20.70;48.20
69628;DHT22;56850;51.984;5.088;2022-09-23T11:41:39;20.80;48.50
69628;DHT22;56850;51.984;5.088;2022-09-23T11:44:13;20.80;48.40
69628;DHT22;56850;51.984;5.088;2022-09-23T11:49:46;20.90;48.00
69628;DHT22;56850;51.984;5.088;2022-09-23T11:52:34;20.90;47.80
69628;DHT22;56850;51.984;5.088;2022-09-23T11:55:14;21.00;47.60
69628;DHT22;56850;51.984;5.088;2022-09-23T11:58:09;21.00;47.60
69628;DHT22;56850;51.984;5.088;2022-09-23T12:00:57;21.00;47.40
69628;DHT22;56850;51.984;5.088;2022-09-23T12:03:47;21.00;47.60
69628;DHT22;56850;51.984;5.088;2022-09-23T12:06:35;21.00;47.50
69628;DHT22;56850;51.984;5.088;2022-09-23T12:09:22;20.90;47.50
69628;DHT22;56850;51.984;5.088;2022-09-23T12:12:57;20.90;47.50
69628;DHT22;56850;51.984;5.088;2022-09-23T12:21:22;21.00;48.10
69628;DHT22;56850;51.984;5.088;2022-09-23T12:27:09;21.10;48.20
69628;DHT22;56850;51.984;5.088;2022-09-23T12:29:38;21.10;48.20
69628;DHT22;56850;51.984;5.088;2022-09-23T12:32:06;21.10;48.30
69628;DHT22;56850;51.984;5.088;2022-09-23T12:34:41;21.20;48.40
69628;DHT22;56850;51.984;5.088;2022-09-23T12:37:36;21.30;48.50
69628;DHT22;56850;51.984;5.088;2022-09-23T12:40:21;21.40;48.50
69628;DHT22;56850;51.984;5.088;2022-09-23T12:42:49;21.50;48.50
69628;DHT22;56850;51.984;5.088;2022-09-23T12:47:58;21.60;48.00
69628;DHT22;56850;51.984;5.088;2022-09-23T12:50:51;21.70;48.10
69628;DHT22;56850;51.984;5.088;2022-09-23T13:01:42;21.70;48.10
69628;DHT22;56850;51.984;5.088;2022-09-23T13:07:22;21.60;48.10
69628;DHT22;56850;51.984;5.088;2022-09-23T13:10:04;21.60;48.30
69628;DHT22;56850;51.984;5.088;2022-09-23T13:12:33;21.70;48.30
69628;DHT22;56850;51.984;5.088;2022-09-23T13:15:03;21.60;48.40
69628;DHT22;56850;51.984;5.088;2022-09-23T13:17:36;21.60;48.70
69628;DHT22;56850;51.984;5.088;2022-09-23T13:20:04;21.60;48.90
69628;DHT22;56850;51.984;5.088;2022-09-23T13:25:19;21.50;48.90
69628;DHT22;56850;51.984;5.088;2022-09-23T13:27:50;21.50;49.20
69628;DHT22;56850;51.984;5.088;2022-09-23T13:30:21;21.50;49.40
69628;DHT22;56850;51.984;5.088;2022-09-23T13:35:34;21.50;49.60
69628;DHT22;56850;51.984;5.088;2022-09-23T13:38:20;21.50;49.70
69628;DHT22;56850;51.984;5.088;2022-09-23T13:41:02;21.50;49.80
69628;DHT22;56850;51.984;5.088;2022-09-23T13:43:36;21.60;49.90
69628;DHT22;56850;51.984;5.088;2022-09-23T13:46:19;21.60;49.90
69628;DHT22;56850;51.984;5.088;2022-09-23T13:48:50;21.60;50.00
69628;DHT22;56850;51.984;5.088;2022-09-23T13:51:33;21.60;50.10
69628;DHT22;56850;51.984;5.088;2022-09-23T13:54:02;21.50;50.40
69628;DHT22;56850;51.984;5.088;2022-09-23T13:56:31;21.50;50.40
69628;DHT22;56850;51.984;5.088;2022-09-23T14:02:03;21.40;50.90
69628;DHT22;56850;51.984;5.088;2022-09-23T14:04:30;21.50;50.90
69628;DHT22;56850;51.984;5.088;2022-09-23T14:06:57;21.50;51.00
69628;DHT22;56850;51.984;5.088;2022-09-23T14:09:25;21.50;51.00
69628;DHT22;56850;51.984;5.088;2022-09-23T14:11:55;21.50;51.30
69628;DHT22;56850;51.984;5.088;2022-09-23T14:14:23;21.60;51.30
69628;DHT22;56850;51.984;5.088;2022-09-23T14:16:50;21.70;51.40
69628;DHT22;56850;51.984;5.088;2022-09-23T14:19:20;21.70;51.50
69628;DHT22;56850;51.984;5.088;2022-09-23T14:21:52;21.70;51.60
69628;DHT22;56850;51.984;5.088;2022-09-23T14:24:30;21.70;51.70
69628;DHT22;56850;51.984;5.088;2022-09-23T14:27:03;21.70;51.90
69628;DHT22;56850;51.984;5.088;2022-09-23T14:29:38;21.60;52.20
69628;DHT22;56850;51.984;5.088;2022-09-23T14:32:12;21.60;52.50
69628;DHT22;56850;51.984;5.088;2022-09-23T14:37:40;21.60;53.10
69628;DHT22;56850;51.984;5.088;2022-09-23T14:40:32;21.60;53.20
69628;DHT22;56850;51.984;5.088;2022-09-23T14:43:05;21.50;53.30
69628;DHT22;56850;51.984;5.088;2022-09-23T14:45:38;21.50;53.50
69628;DHT22;56850;51.984;5.088;2022-09-23T14:48:16;21.50;53.70
69628;DHT22;56850;51.984;5.088;2022-09-23T14:50:50;21.40;53.90
69628;DHT22;56850;51.984;5.088;2022-09-23T14:55:45;21.30;54.30
69628;DHT22;56850;51.984;5.088;2022-09-23T14:58:18;21.30;54.40
69628;DHT22;56850;51.984;5.088;2022-09-23T15:00:56;21.30;54.60
69628;DHT22;56850;51.984;5.088;2022-09-23T15:03:26;21.30;54.70
69628;DHT22;56850;51.984;5.088;2022-09-23T15:06:04;21.20;54.80
69628;DHT22;56850;51.984;5.088;2022-09-23T15:08:34;21.20;55.10
69628;DHT22;56850;51.984;5.088;2022-09-23T15:11:03;21.10;55.10
69628;DHT22;56850;51.984;5.088;2022-09-23T15:13:46;21.10;55.30
69628;DHT22;56850;51.984;5.088;2022-09-23T15:16:15;21.00;55.60
69628;DHT22;56850;51.984;5.088;2022-09-23T15:18:53;21.00;55.80
69628;DHT22;56850;51.984;5.088;2022-09-23T15:21:21;21.00;56.00
69628;DHT22;56850;51.984;5.088;2022-09-23T15:23:50;21.10;56.10
69628;DHT22;56850;51.984;5.088;2022-09-23T15:26:23;21.00;56.30
69628;DHT22;56850;51.984;5.088;2022-09-23T15:28:52;21.00;56.50
69628;DHT22;56850;51.984;5.088;2022-09-23T15:31:22;20.90;56.60
69628;DHT22;56850;51.984;5.088;2022-09-23T15:33:52;20.90;56.90
69628;DHT22;56850;51.984;5.088;2022-09-23T15:36:26;20.90;57.10
69628;DHT22;56850;51.984;5.088;2022-09-23T15:38:54;20.90;57.40
69628;DHT22;56850;51.984;5.088;2022-09-23T15:41:23;20.80;57.50
69628;DHT22;56850;51.984;5.088;2022-09-23T15:43:50;20.70;57.80
69628;DHT22;56850;51.984;5.088;2022-09-23T15:46:23;20.70;58.10
69628;DHT22;56850;51.984;5.088;2022-09-23T15:48:56;20.70;58.50
69628;DHT22;56850;51.984;5.088;2022-09-23T15:51:25;20.70;58.50
69628;DHT22;56850;51.984;5.088;2022-09-23T15:53:53;20.70;58.70
69628;DHT22;56850;51.984;5.088;2022-09-23T15:56:23;20.60;58.80
69628;DHT22;56850;51.984;5.088;2022-09-23T15:58:52;20.60;59.20
69628;DHT22;56850;51.984;5.088;2022-09-23T16:01:26;20.60;59.40
69628;DHT22;56850;51.984;5.088;2022-09-23T16:03:53;20.50;59.70
69628;DHT22;56850;51.984;5.088;2022-09-23T16:06:21;20.50;59.90
69628;DHT22;56850;51.984;5.088;2022-09-23T16:08:49;20.40;60.40
69628;DHT22;56850;51.984;5.088;2022-09-23T16:11:22;20.40;60.60
69628;DHT22;56850;51.984;5.088;2022-09-23T16:13:50;20.40;60.70
69628;DHT22;56850;51.984;5.088;2022-09-23T16:16:18;20.40;60.80
69628;DHT22;56850;51.984;5.088;2022-09-23T16:18:48;20.40;61.00
69628;DHT22;56850;51.984;5.088;2022-09-23T16:21:19;20.40;61.20
69628;DHT22;56850;51.984;5.088;2022-09-23T16:23:48;20.40;61.40
69628;DHT22;56850;51.984;5.088;2022-09-23T16:26:28;20.30;61.60
69628;DHT22;56850;51.984;5.088;2022-09-23T16:28:57;20.30;61.90
69628;DHT22;56850;51.984;5.088;2022-09-23T16:31:25;20.20;62.10
69628;DHT22;56850;51.984;5.088;2022-09-23T16:33:55;20.10;62.10
69628;DHT22;56850;51.984;5.088;2022-09-23T16:36:28;20.10;62.30
69628;DHT22;56850;51.984;5.088;2022-09-23T16:39:01;20.10;62.60
69628;DHT22;56850;51.984;5.088;2022-09-23T16:41:29;20.00;62.80
69628;DHT22;56850;51.984;5.088;2022-09-23T16:43:58;20.00;62.90
69628;DHT22;56850;51.984;5.088;2022-09-23T16:46:30;20.00;63.10
69628;DHT22;56850;51.984;5.088;2022-09-23T16:48:58;19.90;63.30
69628;DHT22;56850;51.984;5.088;2022-09-23T16:51:31;19.90;63.40
69628;DHT22;56850;51.984;5.088;2022-09-23T16:54:07;19.90;63.50
69628;DHT22;56850;51.984;5.088;2022-09-23T16:56:38;19.80;63.60
69628;DHT22;56850;51.984;5.088;2022-09-23T16:59:07;19.80;63.80
69628;DHT22;56850;51.984;5.088;2022-09-23T17:01:36;19.80;64.10
69628;DHT22;56850;51.984;5.088;2022-09-23T17:04:21;19.80;64.30
69628;DHT22;56850;51.984;5.088;2022-09-23T17:06:50;19.80;64.40
69628;DHT22;56850;51.984;5.088;2022-09-23T17:09:27;19.70;64.50
69628;DHT22;56850;51.984;5.088;2022-09-23T17:12:07;19.70;64.40
69628;DHT22;56850;51.984;5.088;2022-09-23T17:14:37;19.70;64.60
69628;DHT22;56850;51.984;5.088;2022-09-23T17:17:04;19.70;64.60
69628;DHT22;56850;51.984;5.088;2022-09-23T17:19:32;19.70;64.70
69628;DHT22;56850;51.984;5.088;2022-09-23T17:22:00;19.70;64.90
69628;DHT22;56850;51.984;5.088;2022-09-23T17:24:27;19.70;65.00
69628;DHT22;56850;51.984;5.088;2022-09-23T17:26:54;19.70;65.10
69628;DHT22;56850;51.984;5.088;2022-09-23T17:29:21;19.70;65.00
69628;DHT22;56850;51.984;5.088;2022-09-23T17:31:52;19.70;65.10
69628;DHT22;56850;51.984;5.088;2022-09-23T17:34:19;19.60;65.10
69628;DHT22;56850;51.984;5.088;2022-09-23T17:36:47;19.60;65.20
69628;DHT22;56850;51.984;5.088;2022-09-23T17:39:19;19.60;65.50
69628;DHT22;56850;51.984;5.088;2022-09-23T17:41:48;19.60;65.60
69628;DHT22;56850;51.984;5.088;2022-09-23T17:44:15;19.60;65.70
69628;DHT22;56850;51.984;5.088;2022-09-23T17:46:44;19.60;65.90
69628;DHT22;56850;51.984;5.088;2022-09-23T17:49:11;19.50;65.90
69628;DHT22;56850;51.984;5.088;2022-09-23T17:51:38;19.50;65.90
69628;DHT22;56850;51.984;5.088;2022-09-23T17:54:05;19.50;66.00
69628;DHT22;56850;51.984;5.088;2022-09-23T17:56:33;19.50;66.10
69628;DHT22;56850;51.984;5.088;2022-09-23T17:59:01;19.50;66.10
69628;DHT22;56850;51.984;5.088;2022-09-23T18:01:28;19.40;66.10
69628;DHT22;56850;51.984;5.088;2022-09-23T18:03:57;19.40;66.20
69628;DHT22;56850;51.984;5.088;2022-09-23T18:06:29;19.40;66.30
69628;DHT22;56850;51.984;5.088;2022-09-23T18:09:00;19.40;66.30
69628;DHT22;56850;51.984;5.088;2022-09-23T18:11:38;19.30;66.30
69628;DHT22;56850;51.984;5.088;2022-09-23T18:14:11;19.30;66.40
69628;DHT22;56850;51.984;5.088;2022-09-23T18:16:39;19.30;66.40
69628;DHT22;56850;51.984;5.088;2022-09-23T18:19:10;19.30;66.30